createdAt,value
2023-05-22T00:00:17.787Z,52.30
2023-05-22T00:02:46.123Z,52.19
2023-05-22T00:05:15.438Z,52.16
2023-05-22T00:07:43.992Z,52.11
2023-05-22T00:10:12.712Z,52.25
2023-05-22T00:12:41.035Z,52.12
2023-05-22T00:15:11.682Z,52.00
2023-05-22T00:17:40.067Z,51.98
2023-05-22T00:20:11.110Z,52.09
2023-05-22T00:22:39.360Z,51.91
2023-05-22T00:25:09.314Z,51.88
2023-05-22T00:27:37.359Z,51.81
2023-05-22T00:30:07.444Z,51.76
2023-05-22T00:32:37.286Z,51.66
2023-05-22T00:35:06.616Z,51.72
2023-05-22T00:37:34.683Z,51.70
2023-05-22T00:40:03.064Z,51.69
2023-05-22T00:42:31.214Z,51.62
2023-05-22T00:44:59.329Z,51.53
2023-05-22T00:47:27.804Z,51.43
2023-05-22T00:49:57.351Z,51.36
2023-05-22T00:52:25.677Z,51.33
2023-05-22T00:54:55.103Z,51.26
2023-05-22T00:57:24.625Z,51.24
2023-05-22T00:59:53.110Z,51.26
2023-05-22T01:02:21.711Z,51.21
2023-05-22T01:04:50.287Z,51.26
2023-05-22T01:07:19.762Z,51.17
2023-05-22T01:09:48.091Z,51.19
2023-05-22T01:12:28.526Z,50.98
2023-05-22T01:15:05.159Z,50.97
2023-05-22T01:17:41.011Z,51.00
2023-05-22T01:20:15.706Z,51.04
2023-05-22T01:23:16.262Z,50.98
2023-05-22T01:26:18.514Z,50.97
2023-05-22T01:29:05.509Z,51.04
2023-05-22T01:31:39.032Z,51.21
2023-05-22T01:34:11.296Z,51.27
2023-05-22T01:36:42.893Z,51.35
2023-05-22T01:39:11.293Z,51.38
2023-05-22T01:41:41.589Z,51.46
2023-05-22T01:44:11.892Z,51.47
2023-05-22T01:46:41.335Z,51.55
2023-05-22T01:49:10.085Z,51.67
2023-05-22T01:51:51.448Z,51.48
2023-05-22T01:54:28.356Z,51.54
2023-05-22T01:57:06.083Z,51.64
2023-05-22T01:59:39.962Z,51.82
2023-05-22T02:02:12.749Z,51.71
2023-05-22T02:04:44.492Z,51.93
2023-05-22T02:07:14.987Z,52.09
2023-05-22T02:09:43.966Z,52.11
2023-05-22T02:12:14.642Z,52.07
2023-05-22T02:14:44.132Z,52.09
2023-05-22T02:17:13.785Z,52.06
2023-05-22T02:19:41.874Z,52.09
2023-05-22T02:22:13.698Z,52.07
2023-05-22T02:24:42.825Z,52.07
2023-05-22T02:27:10.848Z,52.01
2023-05-22T02:29:39.105Z,51.93
2023-05-22T02:32:07.783Z,52.12
2023-05-22T02:34:37.969Z,52.24
2023-05-22T02:37:06.603Z,52.28
2023-05-22T02:39:34.705Z,52.39
2023-05-22T02:42:03.016Z,52.49
2023-05-22T02:44:31.082Z,52.50
2023-05-22T02:46:59.336Z,52.59
2023-05-22T02:49:27.450Z,52.65
2023-05-22T02:51:56.998Z,52.71
2023-05-22T02:54:25.073Z,52.88
2023-05-22T02:56:53.142Z,52.93
2023-05-22T02:59:21.203Z,53.04
2023-05-22T03:01:49.411Z,53.09
2023-05-22T03:04:17.612Z,53.17
2023-05-22T03:06:46.379Z,53.27
2023-05-22T03:09:16.064Z,53.35
2023-05-22T03:11:44.185Z,53.34
2023-05-22T03:14:12.213Z,53.39
2023-05-22T03:16:40.363Z,53.44
2023-05-22T03:19:10.508Z,53.46
2023-05-22T03:21:39.258Z,53.49
2023-05-22T03:24:08.761Z,53.51
2023-05-22T03:26:38.422Z,53.50
2023-05-22T03:29:09.807Z,53.54
2023-05-22T03:31:41.406Z,53.52
2023-05-22T03:34:12.787Z,53.56
2023-05-22T03:36:42.695Z,53.54
2023-05-22T03:39:10.764Z,53.60
2023-05-22T03:41:46.395Z,53.51
2023-05-22T03:44:14.671Z,53.62
2023-05-22T03:46:44.288Z,53.74
2023-05-22T03:49:12.393Z,53.82
2023-05-22T03:51:40.393Z,53.84
2023-05-22T03:54:08.475Z,53.94
2023-05-22T03:56:36.687Z,53.94
2023-05-22T03:59:06.220Z,53.83
2023-05-22T04:01:34.667Z,53.89
2023-05-22T04:04:05.546Z,53.94
2023-05-22T04:06:34.234Z,53.92
2023-05-22T04:09:02.312Z,53.91
2023-05-22T04:11:32.144Z,53.97
2023-05-22T04:14:05.828Z,53.83
2023-05-22T04:16:34.396Z,54.10
2023-05-22T04:19:03.439Z,54.11
2023-05-22T04:21:34.394Z,54.04
2023-05-22T04:24:07.017Z,54.12
2023-05-22T04:26:36.097Z,54.06
2023-05-22T04:29:10.309Z,53.91
2023-05-22T04:31:38.405Z,53.75
2023-05-22T04:34:06.625Z,53.69
2023-05-22T04:36:35.949Z,53.59
2023-05-22T04:39:04.120Z,53.45
2023-05-22T04:41:32.572Z,53.36
2023-05-22T04:44:04.010Z,53.17
2023-05-22T04:46:34.471Z,53.04
2023-05-22T04:49:03.323Z,52.92
2023-05-22T04:51:32.367Z,52.84
2023-05-22T04:54:00.412Z,52.85
2023-05-22T04:56:36.359Z,52.69
2023-05-22T04:59:08.867Z,52.57
2023-05-22T05:01:38.916Z,52.57
2023-05-22T05:04:07.073Z,52.46
2023-05-22T05:06:35.883Z,52.42
2023-05-22T05:09:04.424Z,52.48
2023-05-22T05:11:32.522Z,52.49
2023-05-22T05:14:00.642Z,52.55
2023-05-22T05:16:30.249Z,52.43
2023-05-22T05:18:59.720Z,52.37
2023-05-22T05:21:28.551Z,52.46
2023-05-22T05:24:01.111Z,52.68
2023-05-22T05:26:29.589Z,52.71
2023-05-22T05:28:57.700Z,52.69
2023-05-22T05:31:33.019Z,52.74
2023-05-22T05:34:21.350Z,52.82
2023-05-22T05:36:57.231Z,52.99
2023-05-22T05:39:25.399Z,53.26
2023-05-22T05:41:53.692Z,53.36
2023-05-22T05:44:21.995Z,53.36
2023-05-22T05:46:50.122Z,53.44
2023-05-22T05:49:21.868Z,53.40
2023-05-22T05:51:50.206Z,53.47
2023-05-22T05:54:19.435Z,53.47
2023-05-22T05:56:47.960Z,53.55
2023-05-22T05:59:16.121Z,53.43
2023-05-22T06:02:19.355Z,53.30
2023-05-22T06:04:49.733Z,53.08
2023-05-22T06:07:19.725Z,53.10
2023-05-22T06:09:50.927Z,53.06
2023-05-22T06:12:24.531Z,53.03
2023-05-22T06:14:52.620Z,52.63
2023-05-22T06:17:21.695Z,52.90
2023-05-22T06:19:52.069Z,53.08
2023-05-22T06:22:20.538Z,53.01
2023-05-22T06:24:51.329Z,53.07
2023-05-22T06:27:24.160Z,53.16
2023-05-22T06:29:52.663Z,52.94
2023-05-22T06:32:21.594Z,52.98
2023-05-22T06:34:53.621Z,53.14
2023-05-22T06:37:23.092Z,52.89
2023-05-22T06:39:51.394Z,52.98
2023-05-22T06:42:34.408Z,53.09
2023-05-22T06:45:21.312Z,53.17
2023-05-22T06:48:05.473Z,53.30
2023-05-22T06:50:40.031Z,53.26
2023-05-22T06:53:08.731Z,53.27
2023-05-22T06:55:37.925Z,53.52
2023-05-22T06:58:13.334Z,53.58
2023-05-22T07:00:41.987Z,53.15
2023-05-22T07:03:21.393Z,52.78
2023-05-22T07:06:29.344Z,52.43
2023-05-22T07:08:57.729Z,52.47
2023-05-22T07:11:26.142Z,52.33
2023-05-22T07:13:54.522Z,52.79
2023-05-22T07:16:23.745Z,52.62
2023-05-22T07:18:53.210Z,52.27
2023-05-22T07:21:23.906Z,52.15
2023-05-22T07:23:54.905Z,51.68
2023-05-22T07:26:26.164Z,50.87
2023-05-22T07:29:03.069Z,50.62
2023-05-22T07:31:32.076Z,50.76
2023-05-22T07:34:00.482Z,49.62
2023-05-22T07:36:31.890Z,48.40
2023-05-22T07:39:01.838Z,48.27
2023-05-22T07:41:32.000Z,47.79
2023-05-22T07:44:00.839Z,47.50
2023-05-22T07:46:35.508Z,47.07
2023-05-22T07:49:11.595Z,47.02
2023-05-22T07:51:42.523Z,46.82
2023-05-22T07:54:13.606Z,46.69
2023-05-22T07:56:43.533Z,46.65
2023-05-22T07:59:12.177Z,45.86
2023-05-22T08:01:41.884Z,45.82
2023-05-22T08:04:10.519Z,45.05
2023-05-22T08:06:39.748Z,44.03
2023-05-22T08:09:08.095Z,43.64
2023-05-22T08:11:40.150Z,42.69
2023-05-22T08:14:08.901Z,42.28
2023-05-22T08:16:37.396Z,40.88
2023-05-22T08:19:08.049Z,40.87
2023-05-22T08:21:37.813Z,41.15
2023-05-22T08:24:06.613Z,40.61
2023-05-22T08:26:35.110Z,41.19
2023-05-22T08:29:04.932Z,41.10
2023-05-22T08:31:34.557Z,40.50
2023-05-22T08:34:03.567Z,39.77
2023-05-22T08:36:34.138Z,39.78
2023-05-22T08:39:02.741Z,40.27
2023-05-22T08:41:31.358Z,39.83
2023-05-22T08:43:59.886Z,39.23
2023-05-22T08:46:30.986Z,39.13
2023-05-22T08:48:59.862Z,39.10
2023-05-22T08:51:31.701Z,38.17
2023-05-22T08:54:00.671Z,37.78
2023-05-22T08:56:30.232Z,38.19
2023-05-22T08:58:59.527Z,38.15
2023-05-22T09:01:29.567Z,38.39
2023-05-22T09:04:02.040Z,38.29
2023-05-22T09:06:31.976Z,38.80
2023-05-22T09:09:01.589Z,38.87
2023-05-22T09:11:29.924Z,39.85
2023-05-22T09:14:08.453Z,39.28
2023-05-22T09:16:47.282Z,39.22
2023-05-22T09:19:16.389Z,39.31
2023-05-22T09:21:45.859Z,39.76
2023-05-22T09:24:14.763Z,40.08
2023-05-22T09:26:43.213Z,39.88
2023-05-22T09:29:11.566Z,40.57
2023-05-22T09:31:44.336Z,41.05
2023-05-22T09:34:16.002Z,40.80
2023-05-22T09:36:44.796Z,41.08
2023-05-22T09:39:13.221Z,41.09
2023-05-22T09:41:41.815Z,40.78
2023-05-22T09:44:17.340Z,40.39
2023-05-22T09:46:48.292Z,40.33
2023-05-22T09:49:18.306Z,41.15
2023-05-22T09:51:48.981Z,41.35
2023-05-22T09:54:18.036Z,41.56
2023-05-22T09:56:50.189Z,41.09
2023-05-22T09:59:22.691Z,41.45
2023-05-22T10:01:52.253Z,41.95
2023-05-22T10:04:23.842Z,41.55
2023-05-22T10:06:54.170Z,41.81
2023-05-22T10:09:30.920Z,41.81
2023-05-22T10:12:04.236Z,42.01
2023-05-22T10:14:33.387Z,42.39
2023-05-22T10:17:04.817Z,42.43
2023-05-22T10:19:38.403Z,42.56
2023-05-22T10:22:09.638Z,43.37
2023-05-22T10:24:38.844Z,42.78
2023-05-22T10:27:07.579Z,43.56
2023-05-22T10:29:43.959Z,42.97
2023-05-22T10:32:31.422Z,43.20
2023-05-22T10:35:17.000Z,43.28
2023-05-22T10:37:50.852Z,43.36
2023-05-22T10:40:28.905Z,43.65
2023-05-22T10:43:01.119Z,43.45
2023-05-22T10:45:30.065Z,43.29
2023-05-22T10:48:06.261Z,43.95
2023-05-22T10:50:37.390Z,43.90
2023-05-22T10:53:24.004Z,43.73
2023-05-22T10:55:53.496Z,44.16
2023-05-22T10:58:28.532Z,43.59
2023-05-22T11:01:11.015Z,42.00
2023-05-22T11:03:56.340Z,41.23
2023-05-22T11:06:42.827Z,40.97
2023-05-22T11:09:43.256Z,40.94
2023-05-22T11:12:20.878Z,40.23
2023-05-22T11:14:51.548Z,39.85
2023-05-22T11:17:23.229Z,39.42
2023-05-22T11:20:02.893Z,38.94
2023-05-22T11:22:35.120Z,38.53
2023-05-22T11:25:06.799Z,36.95
2023-05-22T11:27:36.512Z,37.21
2023-05-22T11:30:05.869Z,38.25
2023-05-22T11:32:37.078Z,36.01
2023-05-22T11:35:08.552Z,35.90
2023-05-22T11:37:41.757Z,35.22
2023-05-22T11:40:10.908Z,35.17
2023-05-22T11:42:39.383Z,35.85
2023-05-22T11:45:08.789Z,36.67
2023-05-22T11:47:37.676Z,37.13
2023-05-22T11:50:09.893Z,36.80
2023-05-22T11:52:41.241Z,37.17
2023-05-22T11:55:11.074Z,36.72
2023-05-22T11:57:39.851Z,36.15
2023-05-22T12:00:10.725Z,35.52
2023-05-22T12:02:46.488Z,35.81
2023-05-22T12:05:16.131Z,37.46
2023-05-22T12:07:46.094Z,37.24
2023-05-22T12:10:15.647Z,36.83
2023-05-22T12:12:45.276Z,37.63
2023-05-22T12:15:14.612Z,38.49
2023-05-22T12:17:44.077Z,37.84
2023-05-22T12:20:14.757Z,38.54
2023-05-22T12:22:44.258Z,37.85
2023-05-22T12:25:18.282Z,37.51
2023-05-22T12:27:47.611Z,37.05
2023-05-22T12:30:16.944Z,37.19
2023-05-22T12:32:49.348Z,36.55
2023-05-22T12:35:18.400Z,36.42
2023-05-22T12:37:50.974Z,37.46
2023-05-22T12:40:21.297Z,37.67
2023-05-22T12:42:50.180Z,37.69
2023-05-22T12:45:18.963Z,37.98
2023-05-22T12:47:47.537Z,37.62
2023-05-22T12:50:16.099Z,38.19
2023-05-22T12:52:44.486Z,38.52
2023-05-22T12:55:13.052Z,38.69
2023-05-22T12:57:45.794Z,39.61
2023-05-22T13:00:15.183Z,36.56
2023-05-22T13:02:43.673Z,37.02
2023-05-22T13:05:11.857Z,35.28
2023-05-22T13:07:40.088Z,34.94
2023-05-22T13:10:09.425Z,34.61
2023-05-22T13:12:37.588Z,34.28
2023-05-22T13:15:08.201Z,34.21
2023-05-22T13:17:36.304Z,34.05
2023-05-22T13:20:04.573Z,34.00
2023-05-22T13:22:32.782Z,34.25
2023-05-22T13:25:00.967Z,34.97
2023-05-22T13:27:30.206Z,35.05
2023-05-22T13:30:00.236Z,34.85
2023-05-22T13:32:29.844Z,34.88
2023-05-22T13:34:58.138Z,34.33
2023-05-22T13:37:26.350Z,34.86
2023-05-22T13:39:54.386Z,35.08
2023-05-22T13:42:22.503Z,34.75
2023-05-22T13:44:50.571Z,34.60
2023-05-22T13:47:18.690Z,34.02
2023-05-22T13:49:48.199Z,34.73
2023-05-22T13:52:16.409Z,35.10
2023-05-22T13:54:44.576Z,35.64
2023-05-22T13:57:12.603Z,35.89
2023-05-22T13:59:40.715Z,36.14
2023-05-22T14:02:08.844Z,36.11
2023-05-22T14:04:36.907Z,36.05
2023-05-22T14:07:06.647Z,36.12
2023-05-22T14:09:34.707Z,36.44
2023-05-22T14:12:02.798Z,36.76
2023-05-22T14:14:30.829Z,36.41
2023-05-22T14:16:58.968Z,36.37
2023-05-22T14:19:27.016Z,36.59
2023-05-22T14:21:55.113Z,35.99
2023-05-22T14:24:24.556Z,35.76
2023-05-22T14:26:53.061Z,35.79
2023-05-22T14:29:21.444Z,34.60
2023-05-22T14:31:51.944Z,33.82
2023-05-22T14:34:20.623Z,33.61
2023-05-22T14:36:48.719Z,33.92
2023-05-22T14:39:16.870Z,33.99
2023-05-22T14:41:46.287Z,33.51
2023-05-22T14:44:14.349Z,33.70
2023-05-22T14:46:42.553Z,32.89
2023-05-22T14:49:10.728Z,33.00
2023-05-22T14:51:38.901Z,33.42
2023-05-22T14:54:08.044Z,32.73
2023-05-22T14:56:36.065Z,34.13
2023-05-22T14:59:05.500Z,33.13
2023-05-22T15:01:33.586Z,33.07
2023-05-22T15:04:01.654Z,33.70
2023-05-22T15:06:29.738Z,34.50
2023-05-22T15:08:57.828Z,34.82
2023-05-22T15:11:26.717Z,35.49
2023-05-22T15:13:55.497Z,35.04
2023-05-22T15:16:25.784Z,35.34
2023-05-22T15:18:55.020Z,35.54
2023-05-22T15:21:23.259Z,35.47
2023-05-22T15:23:51.320Z,35.67
2023-05-22T15:26:19.466Z,35.89
2023-05-22T15:28:47.489Z,35.77
2023-05-22T15:31:15.587Z,36.47
2023-05-22T15:33:46.478Z,35.38
2023-05-22T15:36:14.526Z,35.50
2023-05-22T15:38:42.588Z,34.98
2023-05-22T15:41:10.637Z,35.59
2023-05-22T15:43:38.778Z,35.68
2023-05-22T15:46:07.051Z,36.98
2023-05-22T15:48:35.393Z,37.36
2023-05-22T15:51:06.783Z,37.70
2023-05-22T15:53:34.827Z,38.06
2023-05-22T15:56:03.010Z,38.69
2023-05-22T15:58:31.067Z,39.02
2023-05-22T16:00:59.846Z,39.08
2023-05-22T16:03:28.043Z,39.16
2023-05-22T16:05:56.333Z,39.50
2023-05-22T16:08:25.751Z,40.13
2023-05-22T16:10:55.487Z,40.74
2023-05-22T16:13:23.726Z,40.49
2023-05-22T16:15:51.760Z,40.49
2023-05-22T16:18:21.526Z,40.34
2023-05-22T16:20:49.554Z,40.30
2023-05-22T16:23:17.730Z,40.58
2023-05-22T16:28:15.142Z,41.23
2023-05-22T16:30:43.167Z,40.82
2023-05-22T16:33:11.275Z,41.15
2023-05-22T16:35:39.749Z,41.12
2023-05-22T16:38:11.735Z,40.81
2023-05-22T16:40:39.861Z,40.56
2023-05-22T16:43:10.789Z,40.73
2023-05-22T16:45:39.076Z,40.92
2023-05-22T16:48:08.290Z,41.13
2023-05-22T16:50:36.481Z,41.73
2023-05-22T16:53:04.506Z,42.18
2023-05-22T16:55:32.590Z,42.32
2023-05-22T16:58:01.500Z,41.88
2023-05-22T17:00:31.170Z,42.20
2023-05-22T17:02:59.349Z,42.84
2023-05-22T17:05:27.445Z,42.32
2023-05-22T17:07:55.488Z,42.52
2023-05-22T17:10:23.678Z,42.55
2023-05-22T17:12:51.900Z,42.62
2023-05-22T17:15:19.995Z,42.42
2023-05-22T17:17:49.542Z,42.52
2023-05-22T17:20:17.848Z,42.45
2023-05-22T17:22:45.930Z,42.52
2023-05-22T17:25:14.791Z,42.84
2023-05-22T17:27:42.795Z,43.24
2023-05-22T17:30:11.594Z,43.03
2023-05-22T17:32:39.722Z,43.00
2023-05-22T17:35:09.565Z,42.98
2023-05-22T17:37:37.649Z,43.00
2023-05-22T17:40:06.501Z,43.21
2023-05-22T17:42:34.522Z,42.75
2023-05-22T17:45:02.583Z,43.04
2023-05-22T17:47:30.686Z,43.10
2023-05-22T17:49:58.765Z,43.18
2023-05-22T17:52:28.224Z,43.06
2023-05-22T17:54:57.037Z,43.51
2023-05-22T17:57:25.957Z,43.80
2023-05-22T17:59:54.049Z,44.14
2023-05-22T18:02:22.110Z,44.50
2023-05-22T18:04:50.361Z,44.73
2023-05-22T18:07:19.943Z,45.10
2023-05-22T18:09:49.509Z,45.44
2023-05-22T18:12:31.203Z,45.83
2023-05-22T18:15:00.457Z,46.15
2023-05-22T18:17:28.659Z,46.28
2023-05-22T18:19:56.812Z,46.41
2023-05-22T18:22:25.574Z,46.60
2023-05-22T18:24:54.998Z,46.73
2023-05-22T18:27:23.020Z,46.89
2023-05-22T18:29:51.788Z,47.12
2023-05-22T18:32:19.936Z,47.29
2023-05-22T18:34:48.659Z,47.38
2023-05-22T18:37:17.430Z,47.55
2023-05-22T18:39:45.438Z,47.79
2023-05-22T18:42:14.932Z,48.05
2023-05-22T18:44:43.076Z,48.12
2023-05-22T18:47:11.226Z,48.18
2023-05-22T18:49:39.484Z,48.30
2023-05-22T18:52:07.500Z,48.61
2023-05-22T18:54:35.629Z,48.72
2023-05-22T18:57:03.787Z,49.00
2023-05-22T18:59:33.175Z,49.14
2023-05-22T19:02:01.246Z,49.34
2023-05-22T19:04:29.310Z,49.54
2023-05-22T19:07:13.447Z,49.39
2023-05-22T19:09:44.758Z,49.87
2023-05-22T19:12:12.990Z,49.98
2023-05-22T19:14:42.510Z,49.90
2023-05-22T19:17:11.050Z,50.02
2023-05-22T19:19:39.167Z,50.12
2023-05-22T19:22:07.396Z,50.32
2023-05-22T19:24:36.225Z,50.72
2023-05-22T19:27:04.619Z,50.90
2023-05-22T19:29:32.737Z,50.95
2023-05-22T19:32:02.179Z,51.16
2023-05-22T19:34:30.281Z,51.37
2023-05-22T19:36:58.461Z,51.50
2023-05-22T19:39:26.669Z,51.53
2023-05-22T19:41:54.821Z,51.75
2023-05-22T19:44:22.919Z,51.92
2023-05-22T19:46:51.328Z,52.28
2023-05-22T19:49:20.938Z,52.34
2023-05-22T19:51:49.058Z,52.57
2023-05-22T19:54:17.246Z,52.78
2023-05-22T19:56:45.321Z,52.88
2023-05-22T19:59:13.431Z,53.38
2023-05-22T20:01:41.663Z,53.59
2023-05-22T20:04:09.965Z,53.75
2023-05-22T20:06:39.466Z,54.19
2023-05-22T20:09:09.051Z,54.42
2023-05-22T20:11:37.698Z,54.21
2023-05-22T20:14:05.776Z,54.24
2023-05-22T20:16:33.912Z,54.05
2023-05-22T20:19:03.979Z,53.94
2023-05-22T20:21:32.214Z,54.05
2023-05-22T20:24:01.648Z,54.04
2023-05-22T20:26:29.729Z,54.04
2023-05-22T20:28:57.834Z,53.99
2023-05-22T20:31:25.970Z,54.30
2023-05-22T20:33:54.053Z,54.57
2023-05-22T20:36:22.330Z,54.72
2023-05-22T20:38:50.463Z,54.83
2023-05-22T20:41:20.133Z,55.00
2023-05-22T20:43:48.232Z,55.00
2023-05-22T20:46:16.314Z,54.97
2023-05-22T20:48:46.956Z,55.15
2023-05-22T20:51:15.685Z,55.30
2023-05-22T20:53:43.720Z,55.71
2023-05-22T20:56:11.805Z,55.75
2023-05-22T20:58:41.360Z,55.84
2023-05-22T21:01:09.559Z,55.87
2023-05-22T21:03:37.747Z,55.93
2023-05-22T21:06:06.331Z,56.05
2023-05-22T21:08:34.441Z,56.16
2023-05-22T21:11:02.532Z,56.16
2023-05-22T21:13:53.667Z,55.90
2023-05-22T21:19:08.392Z,56.14
2023-05-22T21:21:41.496Z,55.89
2023-05-22T21:24:10.218Z,55.64
2023-05-22T21:26:38.908Z,55.38
2023-05-22T21:29:08.586Z,55.23
2023-05-22T21:31:36.776Z,55.15
2023-05-22T21:34:04.897Z,55.04
2023-05-22T21:36:32.997Z,55.13
2023-05-22T21:39:01.312Z,55.13
2023-05-22T21:41:29.400Z,55.18
2023-05-22T21:43:59.652Z,55.07
2023-05-22T21:46:30.769Z,54.98
2023-05-22T21:49:06.540Z,54.81
2023-05-22T21:51:34.829Z,55.30
2023-05-22T21:54:02.947Z,55.74
2023-05-22T21:56:31.055Z,55.87
2023-05-22T21:58:59.718Z,55.95
2023-05-22T22:01:29.234Z,56.15
2023-05-22T22:03:57.503Z,56.19
2023-05-22T22:06:25.673Z,56.44
2023-05-22T22:08:54.127Z,56.77
2023-05-22T22:11:22.596Z,56.72
2023-05-22T22:13:50.632Z,56.80
2023-05-22T22:16:18.839Z,56.97
2023-05-22T22:18:49.046Z,56.82
2023-05-22T22:21:17.231Z,56.99
2023-05-22T22:23:45.352Z,57.08
2023-05-22T22:26:13.759Z,56.96
2023-05-22T22:28:41.839Z,56.90
2023-05-22T22:31:09.917Z,56.86
2023-05-22T22:33:38.028Z,57.01
2023-05-22T22:36:08.823Z,56.73
2023-05-22T22:38:38.521Z,56.68
2023-05-22T22:41:08.730Z,56.58
2023-05-22T22:43:37.032Z,56.37
2023-05-22T22:46:05.082Z,56.45
2023-05-22T22:48:35.998Z,56.54
2023-05-22T22:51:04.891Z,56.78
2023-05-22T22:53:34.348Z,56.78
2023-05-22T22:56:02.730Z,56.83
2023-05-22T22:58:30.830Z,56.89
2023-05-22T23:00:59.038Z,56.98
2023-05-22T23:03:27.726Z,56.68
2023-05-22T23:05:55.816Z,56.52
2023-05-22T23:08:23.874Z,56.39
2023-05-22T23:10:53.308Z,56.32
2023-05-22T23:13:21.441Z,56.40
2023-05-22T23:15:49.643Z,56.31
2023-05-22T23:18:17.784Z,56.21
2023-05-22T23:20:46.289Z,56.02
2023-05-22T23:23:14.403Z,56.07
2023-05-22T23:25:42.602Z,55.74
2023-05-22T23:28:12.156Z,55.51
2023-05-22T23:30:40.228Z,55.25
2023-05-22T23:33:08.237Z,55.36
2023-05-22T23:35:36.487Z,55.65
2023-05-22T23:38:04.530Z,55.61
2023-05-22T23:40:32.616Z,55.66
2023-05-22T23:43:00.693Z,55.73
2023-05-22T23:45:30.235Z,55.72
2023-05-22T23:47:58.357Z,56.16
2023-05-22T23:50:26.491Z,56.34
2023-05-22T23:53:05.200Z,56.71
2023-05-22T23:55:33.285Z,56.95
2023-05-22T23:58:01.444Z,57.41
